sensor_id;sensor_type;location;lat;lon;timestamp;P1;durP1;ratioP1;P2;durP2;ratioP2
12770;SDS011;6449;47.666;9.160;2022-07-25T00:02:05;7.47;;;6.78;;
12770;SDS011;6449;47.666;9.160;2022-07-25T00:06:59;6.95;;;6.25;;
12770;SDS011;6449;47.666;9.160;2022-07-25T00:11:54;6.97;;;6.28;;
12770;SDS011;6449;47.666;9.160;2022-07-25T00:16:47;6.72;;;6.05;;
12770;SDS011;6449;47.666;9.160;2022-07-25T00:21:41;6.18;;;5.57;;
12770;SDS011;6449;47.666;9.160;2022-07-25T00:26:34;7.43;;;6.65;;
12770;SDS011;6449;47.666;9.160;2022-07-25T00:31:32;12.25;;;9.85;;
12770;SDS011;6449;47.666;9.160;2022-07-25T00:36:25;18.58;;;13.25;;
12770;SDS011;6449;47.666;9.160;2022-07-25T00:41:19;10.98;;;8.50;;
12770;SDS011;6449;47.666;9.160;2022-07-25T00:46:12;7.18;;;6.47;;
12770;SDS011;6449;47.666;9.160;2022-07-25T00:51:12;7.68;;;6.65;;
12770;SDS011;6449;47.666;9.160;2022-07-25T00:56:08;7.32;;;6.63;;
12770;SDS011;6449;47.666;9.160;2022-07-25T01:01:02;7.32;;;6.43;;
12770;SDS011;6449;47.666;9.160;2022-07-25T01:05:56;7.45;;;6.72;;
12770;SDS011;6449;47.666;9.160;2022-07-25T01:10:51;7.28;;;6.55;;
12770;SDS011;6449;47.666;9.160;2022-07-25T01:15:45;7.30;;;6.20;;
12770;SDS011;6449;47.666;9.160;2022-07-25T01:20:39;7.30;;;6.60;;
12770;SDS011;6449;47.666;9.160;2022-07-25T01:25:33;6.90;;;6.07;;
12770;SDS011;6449;47.666;9.160;2022-07-25T01:30:27;7.82;;;6.90;;
12770;SDS011;6449;47.666;9.160;2022-07-25T01:35:20;7.10;;;6.40;;
12770;SDS011;6449;47.666;9.160;2022-07-25T01:40:15;7.90;;;6.03;;
12770;SDS011;6449;47.666;9.160;2022-07-25T01:45:10;7.38;;;6.65;;
12770;SDS011;6449;47.666;9.160;2022-07-25T01:50:05;7.07;;;6.40;;
12770;SDS011;6449;47.666;9.160;2022-07-25T01:55:00;7.40;;;6.60;;
12770;SDS011;6449;47.666;9.160;2022-07-25T01:59:57;7.03;;;6.43;;
12770;SDS011;6449;47.666;9.160;2022-07-25T02:04:51;7.85;;;7.10;;
12770;SDS011;6449;47.666;9.160;2022-07-25T02:09:45;8.75;;;7.65;;
12770;SDS011;6449;47.666;9.160;2022-07-25T02:14:45;9.85;;;7.88;;
12770;SDS011;6449;47.666;9.160;2022-07-25T02:19:40;8.63;;;7.38;;
12770;SDS011;6449;47.666;9.160;2022-07-25T02:24:33;8.15;;;7.35;;
12770;SDS011;6449;47.666;9.160;2022-07-25T02:29:27;7.55;;;6.85;;
12770;SDS011;6449;47.666;9.160;2022-07-25T02:34:20;8.00;;;6.90;;
12770;SDS011;6449;47.666;9.160;2022-07-25T02:39:15;7.55;;;6.85;;
12770;SDS011;6449;47.666;9.160;2022-07-25T02:44:09;7.68;;;6.90;;
12770;SDS011;6449;47.666;9.160;2022-07-25T02:49:02;7.63;;;6.60;;
12770;SDS011;6449;47.666;9.160;2022-07-25T02:53:56;7.97;;;7.18;;
12770;SDS011;6449;47.666;9.160;2022-07-25T02:58:51;7.63;;;6.82;;
12770;SDS011;6449;47.666;9.160;2022-07-25T03:03:45;8.95;;;7.72;;
12770;SDS011;6449;47.666;9.160;2022-07-25T03:08:38;8.10;;;6.85;;
12770;SDS011;6449;47.666;9.160;2022-07-25T03:13:32;7.80;;;7.00;;
12770;SDS011;6449;47.666;9.160;2022-07-25T03:18:27;7.68;;;6.90;;
12770;SDS011;6449;47.666;9.160;2022-07-25T03:23:20;9.70;;;7.28;;
12770;SDS011;6449;47.666;9.160;2022-07-25T03:28:15;8.40;;;7.50;;
12770;SDS011;6449;47.666;9.160;2022-07-25T03:33:08;8.02;;;7.22;;
12770;SDS011;6449;47.666;9.160;2022-07-25T03:38:04;7.50;;;6.82;;
12770;SDS011;6449;47.666;9.160;2022-07-25T03:42:58;7.68;;;6.97;;
12770;SDS011;6449;47.666;9.160;2022-07-25T03:47:51;8.48;;;7.07;;
12770;SDS011;6449;47.666;9.160;2022-07-25T03:52:44;8.07;;;7.13;;
12770;SDS011;6449;47.666;9.160;2022-07-25T03:57:39;9.18;;;7.32;;
12770;SDS011;6449;47.666;9.160;2022-07-25T04:02:33;6.72;;;6.07;;
12770;SDS011;6449;47.666;9.160;2022-07-25T04:07:28;7.80;;;7.00;;
12770;SDS011;6449;47.666;9.160;2022-07-25T04:12:21;8.05;;;7.00;;
12770;SDS011;6449;47.666;9.160;2022-07-25T04:17:16;8.07;;;7.03;;
12770;SDS011;6449;47.666;9.160;2022-07-25T04:22:11;8.43;;;7.53;;
12770;SDS011;6449;47.666;9.160;2022-07-25T04:27:04;9.75;;;7.43;;
12770;SDS011;6449;47.666;9.160;2022-07-25T04:31:58;9.68;;;7.35;;
12770;SDS011;6449;47.666;9.160;2022-07-25T04:36:53;8.65;;;7.40;;
12770;SDS011;6449;47.666;9.160;2022-07-25T04:41:46;9.75;;;7.80;;
12770;SDS011;6449;47.666;9.160;2022-07-25T04:46:40;8.68;;;7.05;;
12770;SDS011;6449;47.666;9.160;2022-07-25T04:51:33;9.13;;;7.47;;
12770;SDS011;6449;47.666;9.160;2022-07-25T04:56:28;8.95;;;8.05;;
12770;SDS011;6449;47.666;9.160;2022-07-25T05:01:22;9.30;;;8.07;;
12770;SDS011;6449;47.666;9.160;2022-07-25T05:06:15;8.95;;;8.05;;
12770;SDS011;6449;47.666;9.160;2022-07-25T05:11:09;9.05;;;8.07;;
12770;SDS011;6449;47.666;9.160;2022-07-25T05:16:05;8.15;;;7.30;;
12770;SDS011;6449;47.666;9.160;2022-07-25T05:20:58;8.50;;;7.63;;
12770;SDS011;6449;47.666;9.160;2022-07-25T05:25:52;8.73;;;7.85;;
12770;SDS011;6449;47.666;9.160;2022-07-25T05:30:45;10.52;;;8.00;;
12770;SDS011;6449;47.666;9.160;2022-07-25T05:35:40;9.10;;;7.88;;
12770;SDS011;6449;47.666;9.160;2022-07-25T05:40:34;8.90;;;8.00;;
12770;SDS011;6449;47.666;9.160;2022-07-25T05:45:27;10.18;;;9.07;;
12770;SDS011;6449;47.666;9.160;2022-07-25T05:50:21;8.88;;;7.95;;
12770;SDS011;6449;47.666;9.160;2022-07-25T05:55:16;8.52;;;7.63;;
12770;SDS011;6449;47.666;9.160;2022-07-25T06:00:10;9.43;;;8.48;;
12770;SDS011;6449;47.666;9.160;2022-07-25T06:05:07;10.25;;;8.93;;
12770;SDS011;6449;47.666;9.160;2022-07-25T06:10:00;9.20;;;8.07;;
12770;SDS011;6449;47.666;9.160;2022-07-25T06:14:56;7.93;;;7.13;;
12770;SDS011;6449;47.666;9.160;2022-07-25T06:19:52;9.15;;;8.15;;
12770;SDS011;6449;47.666;9.160;2022-07-25T06:24:45;10.32;;;8.63;;
12770;SDS011;6449;47.666;9.160;2022-07-25T06:29:39;8.82;;;7.93;;
12770;SDS011;6449;47.666;9.160;2022-07-25T06:34:33;7.60;;;6.88;;
12770;SDS011;6449;47.666;9.160;2022-07-25T06:39:27;9.10;;;8.20;;
12770;SDS011;6449;47.666;9.160;2022-07-25T06:44:20;8.07;;;7.28;;
12770;SDS011;6449;47.666;9.160;2022-07-25T06:49:14;10.25;;;8.25;;
12770;SDS011;6449;47.666;9.160;2022-07-25T06:54:09;9.77;;;8.63;;
12770;SDS011;6449;47.666;9.160;2022-07-25T06:59:04;8.93;;;8.10;;
12770;SDS011;6449;47.666;9.160;2022-07-25T07:03:58;9.63;;;8.63;;
12770;SDS011;6449;47.666;9.160;2022-07-25T07:08:51;9.18;;;8.32;;
12770;SDS011;6449;47.666;9.160;2022-07-25T07:13:46;10.98;;;8.90;;
12770;SDS011;6449;47.666;9.160;2022-07-25T07:18:39;9.75;;;8.75;;
12770;SDS011;6449;47.666;9.160;2022-07-25T07:23:45;10.80;;;9.15;;
12770;SDS011;6449;47.666;9.160;2022-07-25T07:59:42;9.35;;;8.45;;
12770;SDS011;6449;47.666;9.160;2022-07-25T08:09:36;12.00;;;10.00;;
12770;SDS011;6449;47.666;9.160;2022-07-25T08:14:30;10.20;;;9.20;;
12770;SDS011;6449;47.666;9.160;2022-07-25T08:19:25;11.07;;;9.90;;
12770;SDS011;6449;47.666;9.160;2022-07-25T08:24:19;10.77;;;9.70;;
12770;SDS011;6449;47.666;9.160;2022-07-25T08:29:13;10.93;;;9.93;;
12770;SDS011;6449;47.666;9.160;2022-07-25T08:34:10;10.98;;;9.52;;
12770;SDS011;6449;47.666;9.160;2022-07-25T08:39:05;10.63;;;9.50;;
12770;SDS011;6449;47.666;9.160;2022-07-25T08:43:59;10.65;;;9.63;;
12770;SDS011;6449;47.666;9.160;2022-07-25T08:48:54;11.05;;;9.95;;
12770;SDS011;6449;47.666;9.160;2022-07-25T08:53:48;11.75;;;10.07;;
12770;SDS011;6449;47.666;9.160;2022-07-25T08:58:44;11.23;;;10.13;;
12770;SDS011;6449;47.666;9.160;2022-07-25T09:03:38;11.40;;;10.30;;
12770;SDS011;6449;47.666;9.160;2022-07-25T09:08:33;11.52;;;10.43;;
12770;SDS011;6449;47.666;9.160;2022-07-25T09:13:26;11.00;;;9.98;;
12770;SDS011;6449;47.666;9.160;2022-07-25T09:18:23;12.38;;;11.05;;
12770;SDS011;6449;47.666;9.160;2022-07-25T09:23:26;11.43;;;10.23;;
12770;SDS011;6449;47.666;9.160;2022-07-25T09:28:21;10.65;;;9.65;;
12770;SDS011;6449;47.666;9.160;2022-07-25T09:33:15;11.00;;;10.00;;
12770;SDS011;6449;47.666;9.160;2022-07-25T09:38:10;11.05;;;10.05;;
12770;SDS011;6449;47.666;9.160;2022-07-25T09:43:06;10.98;;;9.88;;
12770;SDS011;6449;47.666;9.160;2022-07-25T09:48:01;10.10;;;9.07;;
12770;SDS011;6449;47.666;9.160;2022-07-25T09:52:57;10.50;;;9.50;;
12770;SDS011;6449;47.666;9.160;2022-07-25T09:57:54;10.52;;;9.30;;
12770;SDS011;6449;47.666;9.160;2022-07-25T10:02:49;10.10;;;9.13;;
12770;SDS011;6449;47.666;9.160;2022-07-25T10:07:56;10.75;;;9.75;;
12770;SDS011;6449;47.666;9.160;2022-07-25T10:13:00;10.15;;;9.15;;
12770;SDS011;6449;47.666;9.160;2022-07-25T10:18:02;10.35;;;9.27;;
12770;SDS011;6449;47.666;9.160;2022-07-25T10:22:58;9.48;;;8.57;;
12770;SDS011;6449;47.666;9.160;2022-07-25T10:27:52;9.07;;;8.27;;
12770;SDS011;6449;47.666;9.160;2022-07-25T10:32:58;9.05;;;8.18;;
12770;SDS011;6449;47.666;9.160;2022-07-25T10:37:56;9.95;;;8.25;;
12770;SDS011;6449;47.666;9.160;2022-07-25T10:42:55;8.63;;;7.82;;
12770;SDS011;6449;47.666;9.160;2022-07-25T10:47:53;8.60;;;7.82;;
12770;SDS011;6449;47.666;9.160;2022-07-25T10:52:56;8.23;;;7.43;;
12770;SDS011;6449;47.666;9.160;2022-07-25T10:57:58;8.63;;;7.80;;
12770;SDS011;6449;47.666;9.160;2022-07-25T11:03:08;8.10;;;7.30;;
12770;SDS011;6449;47.666;9.160;2022-07-25T11:08:09;7.70;;;7.00;;
12770;SDS011;6449;47.666;9.160;2022-07-25T11:13:13;7.30;;;6.60;;
12770;SDS011;6449;47.666;9.160;2022-07-25T11:18:06;6.78;;;6.18;;
12770;SDS011;6449;47.666;9.160;2022-07-25T11:23:00;6.30;;;5.70;;
12770;SDS011;6449;47.666;9.160;2022-07-25T11:27:58;5.97;;;5.47;;
12770;SDS011;6449;47.666;9.160;2022-07-25T11:32:54;6.97;;;5.90;;
12770;SDS011;6449;47.666;9.160;2022-07-25T11:37:51;6.45;;;5.85;;
12770;SDS011;6449;47.666;9.160;2022-07-25T11:42:48;6.10;;;5.60;;
12770;SDS011;6449;47.666;9.160;2022-07-25T11:47:45;5.82;;;5.32;;
12770;SDS011;6449;47.666;9.160;2022-07-25T11:52:40;6.25;;;5.65;;
12770;SDS011;6449;47.666;9.160;2022-07-25T11:57:36;6.20;;;5.60;;
12770;SDS011;6449;47.666;9.160;2022-07-25T12:02:32;6.25;;;5.65;;
12770;SDS011;6449;47.666;9.160;2022-07-25T12:07:38;6.18;;;5.57;;
12770;SDS011;6449;47.666;9.160;2022-07-25T12:12:46;6.28;;;5.68;;
12770;SDS011;6449;47.666;9.160;2022-07-25T12:17:42;5.40;;;4.90;;
12770;SDS011;6449;47.666;9.160;2022-07-25T12:22:35;4.82;;;4.43;;
12770;SDS011;6449;47.666;9.160;2022-07-25T12:27:31;5.57;;;4.50;;
12770;SDS011;6449;47.666;9.160;2022-07-25T12:32:24;5.05;;;4.65;;
12770;SDS011;6449;47.666;9.160;2022-07-25T12:37:18;5.38;;;4.97;;
12770;SDS011;6449;47.666;9.160;2022-07-25T12:42:13;4.90;;;4.50;;
12770;SDS011;6449;47.666;9.160;2022-07-25T12:47:07;5.05;;;4.55;;
12770;SDS011;6449;47.666;9.160;2022-07-25T12:52:00;5.05;;;4.63;;
12770;SDS011;6449;47.666;9.160;2022-07-25T12:56:55;6.10;;;5.10;;
12770;SDS011;6449;47.666;9.160;2022-07-25T13:01:49;5.55;;;5.00;;
12770;SDS011;6449;47.666;9.160;2022-07-25T13:06:43;5.38;;;4.88;;
12770;SDS011;6449;47.666;9.160;2022-07-25T13:11:37;5.65;;;5.15;;
12770;SDS011;6449;47.666;9.160;2022-07-25T13:16:30;5.45;;;4.95;;
12770;SDS011;6449;47.666;9.160;2022-07-25T13:21:29;5.93;;;5.43;;
12770;SDS011;6449;47.666;9.160;2022-07-25T13:26:22;5.95;;;5.35;;
12770;SDS011;6449;47.666;9.160;2022-07-25T13:31:16;5.78;;;5.13;;
12770;SDS011;6449;47.666;9.160;2022-07-25T13:36:10;5.65;;;5.15;;
12770;SDS011;6449;47.666;9.160;2022-07-25T13:41:05;5.80;;;5.30;;
12770;SDS011;6449;47.666;9.160;2022-07-25T13:45:59;5.68;;;5.05;;
12770;SDS011;6449;47.666;9.160;2022-07-25T13:50:53;5.22;;;4.82;;
12770;SDS011;6449;47.666;9.160;2022-07-25T13:55:46;5.93;;;5.43;;
12770;SDS011;6449;47.666;9.160;2022-07-25T14:00:42;5.45;;;4.97;;
12770;SDS011;6449;47.666;9.160;2022-07-25T14:05:37;6.00;;;5.50;;
12770;SDS011;6449;47.666;9.160;2022-07-25T14:10:30;6.07;;;5.35;;
12770;SDS011;6449;47.666;9.160;2022-07-25T14:15:24;5.65;;;5.10;;
12770;SDS011;6449;47.666;9.160;2022-07-25T14:20:19;6.80;;;5.72;;
12770;SDS011;6449;47.666;9.160;2022-07-25T14:25:12;5.80;;;5.30;;
12770;SDS011;6449;47.666;9.160;2022-07-25T14:30:06;6.18;;;5.68;;
12770;SDS011;6449;47.666;9.160;2022-07-25T14:35:01;6.07;;;5.57;;
12770;SDS011;6449;47.666;9.160;2022-07-25T14:40:02;6.10;;;5.47;;
12770;SDS011;6449;47.666;9.160;2022-07-25T14:44:57;6.03;;;5.45;;
12770;SDS011;6449;47.666;9.160;2022-07-25T14:49:51;6.20;;;5.20;;
12770;SDS011;6449;47.666;9.160;2022-07-25T14:54:44;6.50;;;5.82;;
12770;SDS011;6449;47.666;9.160;2022-07-25T14:59:39;5.85;;;5.35;;
12770;SDS011;6449;47.666;9.160;2022-07-25T15:04:33;6.43;;;5.93;;
12770;SDS011;6449;47.666;9.160;2022-07-25T15:09:26;6.53;;;5.93;;
12770;SDS011;6449;47.666;9.160;2022-07-25T15:14:20;6.32;;;5.72;;
12770;SDS011;6449;47.666;9.160;2022-07-25T15:19:15;6.32;;;5.47;;
12770;SDS011;6449;47.666;9.160;2022-07-25T15:24:09;6.22;;;5.63;;
12770;SDS011;6449;47.666;9.160;2022-07-25T15:29:05;6.55;;;5.93;;
12770;SDS011;6449;47.666;9.160;2022-07-25T15:34:00;6.35;;;5.75;;
12770;SDS011;6449;47.666;9.160;2022-07-25T15:38:54;6.22;;;5.65;;
12770;SDS011;6449;47.666;9.160;2022-07-25T15:43:48;5.80;;;5.30;;
12770;SDS011;6449;47.666;9.160;2022-07-25T15:48:42;6.00;;;5.50;;
12770;SDS011;6449;47.666;9.160;2022-07-25T15:53:36;5.68;;;5.18;;
12770;SDS011;6449;47.666;9.160;2022-07-25T15:58:30;6.03;;;5.50;;
12770;SDS011;6449;47.666;9.160;2022-07-25T16:03:24;6.10;;;5.60;;
12770;SDS011;6449;47.666;9.160;2022-07-25T16:08:17;6.60;;;6.00;;
12770;SDS011;6449;47.666;9.160;2022-07-25T16:13:11;6.50;;;5.90;;
12770;SDS011;6449;47.666;9.160;2022-07-25T16:18:06;6.90;;;6.30;;
12770;SDS011;6449;47.666;9.160;2022-07-25T16:22:59;6.40;;;5.80;;
12770;SDS011;6449;47.666;9.160;2022-07-25T16:27:53;6.45;;;5.90;;
12770;SDS011;6449;47.666;9.160;2022-07-25T16:32:49;6.55;;;5.95;;
12770;SDS011;6449;47.666;9.160;2022-07-25T16:37:44;5.82;;;5.38;;
12770;SDS011;6449;47.666;9.160;2022-07-25T16:42:38;6.97;;;5.97;;
12770;SDS011;6449;47.666;9.160;2022-07-25T16:47:31;6.13;;;5.53;;
12770;SDS011;6449;47.666;9.160;2022-07-25T16:52:25;5.85;;;5.35;;
12770;SDS011;6449;47.666;9.160;2022-07-25T16:57:20;6.90;;;5.47;;
12770;SDS011;6449;47.666;9.160;2022-07-25T17:02:15;6.68;;;6.07;;
12770;SDS011;6449;47.666;9.160;2022-07-25T17:07:08;5.68;;;5.18;;
12770;SDS011;6449;47.666;9.160;2022-07-25T17:12:02;6.43;;;5.82;;
12770;SDS011;6449;47.666;9.160;2022-07-25T17:16:59;5.57;;;5.13;;
12770;SDS011;6449;47.666;9.160;2022-07-25T17:21:52;5.63;;;5.10;;
12770;SDS011;6449;47.666;9.160;2022-07-25T17:26:46;5.60;;;5.10;;
12770;SDS011;6449;47.666;9.160;2022-07-25T17:31:39;5.13;;;4.63;;
12770;SDS011;6449;47.666;9.160;2022-07-25T17:36:34;6.50;;;4.93;;
12770;SDS011;6449;47.666;9.160;2022-07-25T17:41:28;6.45;;;5.03;;
12770;SDS011;6449;47.666;9.160;2022-07-25T17:46:21;6.50;;;5.53;;
12770;SDS011;6449;47.666;9.160;2022-07-25T17:51:14;5.18;;;4.68;;
12770;SDS011;6449;47.666;9.160;2022-07-25T17:56:12;5.03;;;4.53;;
12770;SDS011;6449;47.666;9.160;2022-07-25T18:01:06;5.18;;;4.72;;
12770;SDS011;6449;47.666;9.160;2022-07-25T18:06:01;5.10;;;4.70;;
12770;SDS011;6449;47.666;9.160;2022-07-25T18:10:56;5.03;;;4.63;;
12770;SDS011;6449;47.666;9.160;2022-07-25T18:15:52;5.30;;;4.80;;
12770;SDS011;6449;47.666;9.160;2022-07-25T18:20:45;5.00;;;4.60;;
12770;SDS011;6449;47.666;9.160;2022-07-25T18:25:39;5.53;;;4.97;;
12770;SDS011;6449;47.666;9.160;2022-07-25T18:30:33;5.18;;;4.68;;
12770;SDS011;6449;47.666;9.160;2022-07-25T18:35:28;5.13;;;4.63;;
12770;SDS011;6449;47.666;9.160;2022-07-25T18:40:23;5.20;;;4.80;;
12770;SDS011;6449;47.666;9.160;2022-07-25T18:45:16;4.78;;;4.32;;
12770;SDS011;6449;47.666;9.160;2022-07-25T18:50:10;5.28;;;4.60;;
12770;SDS011;6449;47.666;9.160;2022-07-25T18:55:07;5.07;;;4.68;;
12770;SDS011;6449;47.666;9.160;2022-07-25T19:00:01;5.43;;;4.82;;
12770;SDS011;6449;47.666;9.160;2022-07-25T19:04:56;5.78;;;4.53;;
12770;SDS011;6449;47.666;9.160;2022-07-25T19:09:49;5.55;;;4.88;;
12770;SDS011;6449;47.666;9.160;2022-07-25T19:14:44;5.43;;;4.97;;
12770;SDS011;6449;47.666;9.160;2022-07-25T19:19:38;6.10;;;4.78;;
12770;SDS011;6449;47.666;9.160;2022-07-25T19:24:31;4.95;;;4.55;;
12770;SDS011;6449;47.666;9.160;2022-07-25T19:29:25;5.07;;;4.60;;
12770;SDS011;6449;47.666;9.160;2022-07-25T19:34:20;5.88;;;4.60;;
12770;SDS011;6449;47.666;9.160;2022-07-25T19:39:14;4.90;;;4.40;;
12770;SDS011;6449;47.666;9.160;2022-07-25T19:44:08;4.50;;;4.10;;
12770;SDS011;6449;47.666;9.160;2022-07-25T19:49:02;5.75;;;4.20;;
12770;SDS011;6449;47.666;9.160;2022-07-25T19:53:58;4.60;;;4.20;;
12770;SDS011;6449;47.666;9.160;2022-07-25T19:58:55;4.72;;;4.32;;
12770;SDS011;6449;47.666;9.160;2022-07-25T20:03:48;4.50;;;4.10;;
12770;SDS011;6449;47.666;9.160;2022-07-25T20:08:41;5.20;;;4.65;;
12770;SDS011;6449;47.666;9.160;2022-07-25T20:13:36;4.88;;;4.38;;
12770;SDS011;6449;47.666;9.160;2022-07-25T20:18:30;4.38;;;3.97;;
12770;SDS011;6449;47.666;9.160;2022-07-25T20:23:23;6.15;;;4.38;;
12770;SDS011;6449;47.666;9.160;2022-07-25T20:28:17;5.00;;;4.60;;
12770;SDS011;6449;47.666;9.160;2022-07-25T20:33:12;4.22;;;3.83;;
12770;SDS011;6449;47.666;9.160;2022-07-25T20:38:06;4.47;;;4.07;;
12770;SDS011;6449;47.666;9.160;2022-07-25T20:43:01;5.25;;;4.45;;
12770;SDS011;6449;47.666;9.160;2022-07-25T20:47:54;5.82;;;4.47;;
12770;SDS011;6449;47.666;9.160;2022-07-25T20:52:49;4.50;;;3.97;;
12770;SDS011;6449;47.666;9.160;2022-07-25T20:57:43;4.13;;;3.72;;
12770;SDS011;6449;47.666;9.160;2022-07-25T21:02:40;4.97;;;4.38;;
12770;SDS011;6449;47.666;9.160;2022-07-25T21:07:34;5.38;;;4.35;;
12770;SDS011;6449;47.666;9.160;2022-07-25T21:12:29;4.25;;;3.85;;
12770;SDS011;6449;47.666;9.160;2022-07-25T21:17:23;4.45;;;4.05;;
12770;SDS011;6449;47.666;9.160;2022-07-25T21:22:16;5.93;;;4.28;;
12770;SDS011;6449;47.666;9.160;2022-07-25T21:27:10;4.68;;;4.28;;
12770;SDS011;6449;47.666;9.160;2022-07-25T21:32:06;5.47;;;4.85;;
12770;SDS011;6449;47.666;9.160;2022-07-25T21:37:04;4.85;;;4.20;;
12770;SDS011;6449;47.666;9.160;2022-07-25T21:41:58;6.82;;;4.25;;
12770;SDS011;6449;47.666;9.160;2022-07-25T21:46:51;4.95;;;4.45;;
12770;SDS011;6449;47.666;9.160;2022-07-25T21:51:57;6.25;;;4.40;;
12770;SDS011;6449;47.666;9.160;2022-07-25T21:56:54;4.68;;;4.28;;
12770;SDS011;6449;47.666;9.160;2022-07-25T22:01:48;5.13;;;4.55;;
12770;SDS011;6449;47.666;9.160;2022-07-25T22:06:42;4.90;;;4.35;;
12770;SDS011;6449;47.666;9.160;2022-07-25T22:11:36;7.00;;;4.30;;
12770;SDS011;6449;47.666;9.160;2022-07-25T22:16:36;5.38;;;4.78;;
12770;SDS011;6449;47.666;9.160;2022-07-25T22:21:30;4.72;;;4.30;;
12770;SDS011;6449;47.666;9.160;2022-07-25T22:26:26;5.38;;;4.38;;
12770;SDS011;6449;47.666;9.160;2022-07-25T22:31:21;6.35;;;4.53;;
12770;SDS011;6449;47.666;9.160;2022-07-25T22:36:14;4.55;;;4.15;;
12770;SDS011;6449;47.666;9.160;2022-07-25T22:41:16;5.18;;;4.68;;
12770;SDS011;6449;47.666;9.160;2022-07-25T22:46:15;4.40;;;4.00;;
12770;SDS011;6449;47.666;9.160;2022-07-25T22:51:10;4.47;;;4.07;;
12770;SDS011;6449;47.666;9.160;2022-07-25T22:56:04;8.65;;;4.80;;
12770;SDS011;6449;47.666;9.160;2022-07-25T23:00:57;3.63;;;3.33;;
12770;SDS011;6449;47.666;9.160;2022-07-25T23:05:50;4.20;;;3.58;;
12770;SDS011;6449;47.666;9.160;2022-07-25T23:10:45;4.22;;;2.88;;
12770;SDS011;6449;47.666;9.160;2022-07-25T23:15:39;4.00;;;2.85;;
12770;SDS011;6449;47.666;9.160;2022-07-25T23:20:40;2.83;;;2.63;;
12770;SDS011;6449;47.666;9.160;2022-07-25T23:25:34;3.00;;;2.70;;
12770;SDS011;6449;47.666;9.160;2022-07-25T23:30:34;5.00;;;2.80;;
12770;SDS011;6449;47.666;9.160;2022-07-25T23:35:31;2.70;;;2.50;;
12770;SDS011;6449;47.666;9.160;2022-07-25T23:40:24;3.83;;;2.90;;
12770;SDS011;6449;47.666;9.160;2022-07-25T23:45:17;3.05;;;2.75;;
12770;SDS011;6449;47.666;9.160;2022-07-25T23:50:12;3.40;;;3.10;;
12770;SDS011;6449;47.666;9.160;2022-07-25T23:55:06;3.38;;;3.08;;
